Time;durP1;ratioP1;P1;durP2;ratioP2;P2;SDS_P1;SDS_P2;PMS_P1;PMS_P2;Temp;Humidity;BMP_temperature;BMP_pressure;BME280_temperature;BME280_humidity;BME280_pressure;Samples;Min_cycle;Max_cycle;Signal;HPM_P1;HPM_P2
2023/03/20 00:01:51;;;;;;;19.40;9.00;;;;;;;3.28;100.00;98883.03;5137500;28;20100;-59
2023/03/20 00:04:18;;;;;;;20.67;10.18;;;;;;;3.27;100.00;98895.00;5137722;27;20071;-60
2023/03/20 00:06:44;;;;;;;22.13;10.48;;;;;;;3.30;100.00;98915.25;5138114;28;20130;-61
2023/03/20 00:09:12;;;;;;;27.63;12.10;;;;;;;3.26;100.00;98925.09;5137018;28;20505;-62
2023/03/20 00:11:43;;;;;;;29.20;12.35;;;;;;;3.28;100.00;98964.31;5137080;28;20257;-59
2023/03/20 00:14:12;;;;;;;26.02;12.32;;;;;;;3.35;100.00;98960.31;5137178;28;20142;-63
2023/03/20 00:16:40;;;;;;;25.00;10.77;;;;;;;3.35;100.00;98935.94;5136796;28;20245;-62
2023/03/20 00:19:14;;;;;;;30.55;12.20;;;;;;;3.33;100.00;98925.41;5137073;28;20448;-60
2023/03/20 00:21:40;;;;;;;30.83;11.00;;;;;;;3.33;100.00;98919.19;5136786;28;20061;-62
2023/03/20 00:24:07;;;;;;;23.67;10.23;;;;;;;3.28;100.00;98912.84;5137082;28;20047;-63
2023/03/20 00:26:35;;;;;;;23.70;11.02;;;;;;;3.13;100.00;98904.41;5136834;28;20329;-64
2023/03/20 00:29:03;;;;;;;28.15;11.20;;;;;;;3.20;100.00;98927.22;5137153;28;20408;-64
2023/03/20 00:31:31;;;;;;;32.15;12.15;;;;;;;3.16;100.00;98941.69;5136941;28;20070;-63
2023/03/20 00:33:59;;;;;;;25.55;11.18;;;;;;;3.20;100.00;98940.75;5136819;28;20093;-62
2023/03/20 00:36:25;;;;;;;24.63;12.35;;;;;;;3.21;100.00;98952.38;5136847;27;20354;-60
2023/03/20 00:38:53;;;;;;;22.30;10.57;;;;;;;3.21;100.00;98955.88;5136683;28;20141;-57
2023/03/20 00:41:26;;;;;;;27.42;12.10;;;;;;;3.22;100.00;98949.34;5136924;28;20138;-58
2023/03/20 00:43:54;;;;;;;25.80;12.52;;;;;;;3.25;100.00;98948.69;5136450;28;20195;-64
2023/03/20 00:46:20;;;;;;;32.70;11.80;;;;;;;3.25;100.00;98929.75;5136882;28;20191;-61
2023/03/20 00:48:47;;;;;;;22.60;9.85;;;;;;;3.23;100.00;98915.75;5136416;28;20137;-62
2023/03/20 00:51:13;;;;;;;24.23;11.40;;;;;;;3.19;100.00;98903.94;5136823;28;20043;-64
2023/03/20 00:53:39;;;;;;;25.80;11.07;;;;;;;3.14;100.00;98911.44;5136353;27;20058;-61
2023/03/20 00:56:21;;;;;;;30.48;11.30;;;;;;;3.16;100.00;98939.00;5139739;28;20102;-61
2023/03/20 00:58:49;;;;;;;169.07;57.63;;;;;;;3.12;100.00;98951.59;5140102;28;20047;-62
2023/03/20 01:01:15;;;;;;;103.72;37.72;;;;;;;3.19;100.00;98941.06;5140070;28;20074;-58
2023/03/20 01:03:41;;;;;;;71.75;23.48;;;;;;;3.16;100.00;98937.06;5139839;28;20142;-62
2023/03/20 01:06:08;;;;;;;65.35;23.83;;;;;;;3.13;100.00;98917.97;5139698;27;20136;-64
2023/03/20 01:08:34;;;;;;;31.75;13.80;;;;;;;3.13;100.00;98902.50;5139926;28;20064;-64
2023/03/20 01:11:00;;;;;;;28.50;11.93;;;;;;;3.14;100.00;98900.63;5139735;28;20079;-63
2023/03/20 01:13:29;;;;;;;25.83;11.30;;;;;;;3.09;100.00;98879.88;5139935;28;20047;-60
2023/03/20 01:15:56;;;;;;;22.95;10.75;;;;;;;3.02;100.00;98872.25;5139595;28;20078;-61
2023/03/20 01:18:24;;;;;;;30.60;11.88;;;;;;;2.98;100.00;98882.16;5139961;28;20047;-62
2023/03/20 01:20:51;;;;;;;33.38;13.65;;;;;;;2.97;100.00;98942.06;5139416;28;20075;-63
2023/03/20 01:23:18;;;;;;;29.63;13.05;;;;;;;3.04;100.00;98931.53;5139380;28;20396;-62
2023/03/20 01:25:45;;;;;;;34.50;14.00;;;;;;;3.02;100.00;98920.22;5139306;28;20391;-59
2023/03/20 01:28:14;;;;;;;38.05;16.30;;;;;;;3.06;100.00;98932.78;5139510;28;20139;-62
2023/03/20 01:30:41;;;;;;;34.63;14.65;;;;;;;3.11;100.00;98910.16;5139532;28;20422;-58
2023/03/20 01:33:13;;;;;;;35.95;15.80;;;;;;;3.08;100.00;98897.28;5139430;28;20051;-57
2023/03/20 01:35:39;;;;;;;37.65;14.45;;;;;;;3.03;100.00;98910.97;5139588;27;20062;-64
2023/03/20 01:38:11;;;;;;;40.95;16.63;;;;;;;3.02;100.00;98896.63;5139399;28;20078;-61
2023/03/20 01:40:46;;;;;;;39.75;16.73;;;;;;;2.96;100.00;98900.63;5139574;28;20312;-59
2023/03/20 01:43:15;;;;;;;39.15;16.17;;;;;;;2.93;100.00;98909.41;5138957;28;20488;-58
2023/03/20 01:45:51;;;;;;;38.00;15.43;;;;;;;2.86;100.00;98909.06;5138913;28;20047;-60
2023/03/20 01:48:19;;;;;;;33.45;14.25;;;;;;;2.85;100.00;98909.41;5139344;28;20112;-62
2023/03/20 01:50:45;;;;;;;29.27;12.57;;;;;;;2.85;100.00;98914.81;5139157;28;20050;-62
2023/03/20 01:53:15;;;;;;;29.30;11.93;;;;;;;2.81;100.00;98914.66;5139222;28;20043;-63
2023/03/20 01:55:44;;;;;;;30.60;12.32;;;;;;;2.76;100.00;98904.78;5139016;28;20111;-56
2023/03/20 01:58:17;;;;;;;29.17;13.23;;;;;;;2.69;100.00;98918.00;5139320;28;20141;-56
2023/03/20 02:00:44;;;;;;;29.52;11.80;;;;;;;2.66;100.00;98947.63;5138832;28;20134;-60
2023/03/20 02:03:11;;;;;;;19.45;10.38;;;;;;;2.69;100.00;98944.28;5139238;28;20059;-62
2023/03/20 02:05:38;;;;;;;27.08;11.35;;;;;;;2.59;100.00;98946.16;5138051;27;20187;-59
2023/03/20 02:08:19;;;;;;;21.00;9.00;;;;;;;2.59;100.00;98970.53;5139192;28;20047;-62
2023/03/20 02:10:46;;;;;;;16.83;8.52;;;;;;;2.63;100.00;98967.97;5138829;28;20222;-59
2023/03/20 02:13:14;;;;;;;20.27;8.73;;;;;;;2.64;100.00;98977.72;5138813;28;20051;-57
2023/03/20 02:15:59;;;;;;;18.45;8.20;;;;;;;2.58;100.00;98982.47;5138918;28;20054;-58
2023/03/20 02:18:25;;;;;;;20.42;8.38;;;;;;;2.49;100.00;98999.81;5138879;28;20133;-55
2023/03/20 02:21:25;;;;;;;12.65;6.57;;;;;;;2.38;100.00;99055.34;5139051;28;20047;-59
2023/03/20 02:24:18;;;;;;;15.38;7.20;;;;;;;2.62;100.00;99074.66;5138613;28;20047;-63
2023/03/20 02:26:58;;;;;;;15.05;7.90;;;;;;;2.64;100.00;99055.41;5138692;28;20305;-59
2023/03/20 02:30:10;;;;;;;14.27;7.57;;;;;;;2.41;100.00;99052.78;5138824;28;20158;-61
2023/03/20 02:33:13;;;;;;;15.02;7.20;;;;;;;2.49;100.00;99086.41;5036025;28;20053;-61
2023/03/20 02:36:11;;;;;;;17.60;8.27;;;;;;;2.58;100.00;99057.47;5035666;28;20210;-57
2023/03/20 02:38:53;;;;;;;13.75;7.28;;;;;;;2.26;100.00;99078.34;5035934;28;20437;-55
2023/03/20 02:41:26;;;;;;;18.02;8.63;;;;;;;2.26;100.00;99115.41;5035681;28;20072;-59
2023/03/20 02:43:59;;;;;;;17.92;8.70;;;;;;;2.37;100.00;99119.47;5035704;28;20058;-58
2023/03/20 02:46:33;;;;;;;15.73;8.60;;;;;;;2.37;100.00;99105.94;5035569;28;20049;-62
2023/03/20 02:49:07;;;;;;;18.33;9.38;;;;;;;2.35;100.00;99119.75;5035565;28;20144;-60
2023/03/20 02:51:39;;;;;;;19.30;8.25;;;;;;;2.48;100.00;99134.31;5035512;28;20386;-58
2023/03/20 02:54:12;;;;;;;22.23;9.48;;;;;;;2.52;100.00;99105.50;5035538;28;20052;-63
2023/03/20 02:56:48;;;;;;;20.60;9.20;;;;;;;2.33;100.00;99165.28;5035424;28;20061;-64
2023/03/20 02:59:25;;;;;;;17.20;8.48;;;;;;;2.13;100.00;99127.91;5035645;28;20060;-60
2023/03/20 03:01:55;;;;;;;18.27;10.63;;;;;;;2.24;100.00;99158.22;5035306;28;20045;-64
2023/03/20 03:04:26;;;;;;;24.13;10.73;;;;;;;2.48;100.00;99168.69;5135764;27;20057;-58
2023/03/20 03:06:54;;;;;;;20.70;9.60;;;;;;;2.45;100.00;99123.31;5138001;28;20051;-61
2023/03/20 03:09:25;;;;;;;17.40;9.23;;;;;;;2.55;100.00;99109.50;5138034;28;20142;-62
2023/03/20 03:11:54;;;;;;;18.80;8.63;;;;;;;2.55;100.00;99071.63;5137870;28;20133;-57
2023/03/20 03:14:29;;;;;;;20.00;9.20;;;;;;;2.27;100.00;99071.84;5138008;28;20051;-63
2023/03/20 03:16:57;;;;;;;16.20;8.57;;;;;;;2.48;100.00;99126.19;5136686;27;20379;-56
2023/03/20 03:19:28;;;;;;;15.75;8.23;;;;;;;2.65;100.00;99103.00;5137825;28;20427;-56
2023/03/20 03:21:54;;;;;;;18.45;8.48;;;;;;;2.67;100.00;99050.16;5137578;28;20054;-63
2023/03/20 03:24:28;;;;;;;15.57;7.15;;;;;;;2.65;100.00;99038.84;5138454;28;20078;-60
2023/03/20 03:26:55;;;;;;;13.85;7.82;;;;;;;2.65;100.00;99016.41;5138256;28;20152;-58
2023/03/20 03:29:25;;;;;;;12.80;7.18;;;;;;;2.64;100.00;99010.19;5137843;28;20085;-63
2023/03/20 03:31:52;;;;;;;14.45;7.93;;;;;;;2.65;100.00;99006.38;5137680;28;20051;-62
2023/03/20 03:34:21;;;;;;;16.20;7.72;;;;;;;2.68;100.00;99003.03;5137511;27;20142;-62
2023/03/20 03:36:53;;;;;;;15.05;7.20;;;;;;;2.62;100.00;98982.63;5137959;28;20047;-63
2023/03/20 03:39:27;;;;;;;17.55;7.80;;;;;;;2.69;100.00;98982.16;5137380;28;20047;-57
2023/03/20 03:42:00;;;;;;;19.35;9.27;;;;;;;2.67;100.00;98977.09;5137796;28;20141;-56
2023/03/20 03:44:34;;;;;;;14.43;7.67;;;;;;;2.62;100.00;98988.06;5137161;28;20053;-59
2023/03/20 03:47:05;;;;;;;18.48;7.78;;;;;;;2.64;100.00;99004.00;5137701;28;20320;-60
2023/03/20 03:49:34;;;;;;;14.40;7.25;;;;;;;2.67;100.00;99009.56;5137485;28;20158;-61
2023/03/20 03:52:05;;;;;;;15.60;7.40;;;;;;;2.71;100.00;98996.19;5137092;28;20141;-57
2023/03/20 03:54:37;;;;;;;15.15;7.85;;;;;;;2.67;100.00;98979.00;5137455;28;20332;-57
2023/03/20 03:57:06;;;;;;;17.45;8.25;;;;;;;2.75;100.00;98989.03;5137243;28;20089;-56
2023/03/20 03:59:37;;;;;;;18.42;7.50;;;;;;;2.79;100.00;98982.66;5137442;28;20134;-58
2023/03/20 04:02:04;;;;;;;13.00;7.47;;;;;;;2.85;100.00;98961.63;5137021;28;20421;-58
2023/03/20 04:04:33;;;;;;;16.33;8.20;;;;;;;2.82;100.00;98957.66;5137278;27;20051;-63
2023/03/20 04:06:59;;;;;;;17.13;7.70;;;;;;;2.94;100.00;98929.16;5136975;28;20456;-63
2023/03/20 04:09:25;;;;;;;17.45;8.90;;;;;;;2.88;100.00;98914.97;5137419;28;20086;-58
2023/03/20 04:11:53;;;;;;;15.10;7.30;;;;;;;2.95;100.00;98922.63;5136819;28;20050;-63
2023/03/20 04:14:19;;;;;;;15.52;7.30;;;;;;;3.00;100.00;98898.06;5137047;28;20051;-59
2023/03/20 04:16:45;;;;;;;15.60;8.90;;;;;;;2.92;100.00;98898.88;5137160;28;20437;-59
2023/03/20 04:19:11;;;;;;;15.25;7.75;;;;;;;2.89;100.00;98889.47;5136747;28;20051;-62
2023/03/20 04:21:37;;;;;;;13.63;7.85;;;;;;;2.90;100.00;98917.34;5136885;28;20381;-58
2023/03/20 04:24:04;;;;;;;17.63;8.98;;;;;;;2.85;100.00;98939.97;5136802;28;20207;-61
2023/03/20 04:26:30;;;;;;;16.98;8.27;;;;;;;3.00;100.00;98949.50;5136896;28;20422;-62
2023/03/20 04:28:57;;;;;;;13.95;7.20;;;;;;;2.98;100.00;98911.94;5138602;27;20058;-60
2023/03/20 04:31:23;;;;;;;16.23;9.10;;;;;;;3.02;100.00;98893.94;5140568;28;20141;-63
2023/03/20 04:33:49;;;;;;;20.80;9.45;;;;;;;3.05;100.00;98920.38;5140373;28;20134;-60
2023/03/20 04:36:15;;;;;;;14.38;8.38;;;;;;;3.14;100.00;98890.56;5140618;27;20137;-58
2023/03/20 04:38:41;;;;;;;22.05;9.57;;;;;;;3.17;100.00;98867.47;5140071;28;20068;-56
2023/03/20 04:41:07;;;;;;;16.42;8.45;;;;;;;3.15;100.00;98835.28;5140436;28;20047;-62
2023/03/20 04:43:33;;;;;;;16.02;8.32;;;;;;;3.10;100.00;98831.94;5139991;28;20404;-58
2023/03/20 04:46:00;;;;;;;19.60;10.00;;;;;;;2.73;100.00;98843.19;5139969;28;20047;-59
2023/03/20 04:48:27;;;;;;;20.92;10.82;;;;;;;3.23;100.00;98926.56;5140193;28;20055;-70
2023/03/20 04:50:53;;;;;;;23.48;11.02;;;;;;;3.36;100.00;98886.03;5140076;28;20421;-73
2023/03/20 04:53:19;;;;;;;17.98;9.30;;;;;;;3.42;100.00;98861.16;5140213;28;20059;-63
2023/03/20 04:55:45;;;;;;;24.27;10.80;;;;;;;3.40;100.00;98843.63;5139877;28;20054;-60
2023/03/20 04:58:11;;;;;;;17.15;8.80;;;;;;;3.52;100.00;98830.19;5139957;28;20047;-68
2023/03/20 05:00:37;;;;;;;26.42;10.50;;;;;;;3.60;100.00;98842.09;5139703;28;20134;-63
2023/03/20 05:03:04;;;;;;;19.05;9.98;;;;;;;3.62;100.00;98810.84;5140114;28;20097;-68
2023/03/20 05:05:30;;;;;;;22.15;10.15;;;;;;;3.68;100.00;98789.78;5139323;27;20502;-70
2023/03/20 05:07:56;;;;;;;21.98;10.43;;;;;;;3.72;100.00;98769.78;5140061;28;20051;-65
2023/03/20 05:10:22;;;;;;;19.80;10.52;;;;;;;3.78;100.00;98768.50;5139356;28;20116;-62
2023/03/20 05:12:48;;;;;;;24.42;11.63;;;;;;;3.85;100.00;98743.56;5139223;28;20055;-63
2023/03/20 05:15:14;;;;;;;20.75;10.73;;;;;;;3.95;100.00;98753.22;5139837;28;20050;-64
2023/03/20 05:17:40;;;;;;;26.50;11.23;;;;;;;4.03;100.00;98736.06;5139322;28;20043;-68
2023/03/20 05:20:08;;;;;;;21.52;11.27;;;;;;;4.07;100.00;98712.59;5139477;28;20152;-71
2023/03/20 05:22:33;;;;;;;19.33;11.00;;;;;;;4.09;100.00;98717.69;5139300;28;20132;-65
2023/03/20 05:25:00;;;;;;;25.85;11.57;;;;;;;4.27;100.00;98707.47;5139445;28;20087;-66
2023/03/20 05:27:26;;;;;;;28.80;14.52;;;;;;;4.22;100.00;98675.91;5139604;28;20062;-72
2023/03/20 05:29:52;;;;;;;30.05;13.98;;;;;;;3.94;100.00;98698.19;5139414;28;20051;-71
2023/03/20 05:32:19;;;;;;;33.50;14.57;;;;;;;4.23;100.00;98732.56;5139154;28;20047;-68
2023/03/20 05:34:45;;;;;;;31.08;13.85;;;;;;;4.37;100.00;98702.44;5138629;27;20428;-60
2023/03/20 05:37:12;;;;;;;32.85;17.17;;;;;;;4.41;100.00;98657.19;5139157;28;20057;-56
2023/03/20 05:39:37;;;;;;;69.47;30.35;;;;;;;4.56;100.00;98635.94;5138010;27;20051;-64
2023/03/20 05:42:04;;;;;;;73.25;28.17;;;;;;;4.54;100.00;98598.28;5139126;28;20193;-64
2023/03/20 05:44:30;;;;;;;37.40;18.30;;;;;;;4.47;100.00;98608.94;5138907;28;20093;-68
2023/03/20 05:46:56;;;;;;;31.00;13.63;;;;;;;4.60;100.00;98607.81;5139050;28;20044;-63
2023/03/20 05:49:22;;;;;;;33.47;15.32;;;;;;;4.60;100.00;98623.28;5139236;28;20408;-65
2023/03/20 05:51:48;;;;;;;30.30;14.10;;;;;;;4.59;100.00;98619.78;5139225;28;20358;-64
2023/03/20 05:54:15;;;;;;;26.02;12.82;;;;;;;4.67;100.00;98612.69;5138680;28;20051;-70
2023/03/20 05:56:40;;;;;;;26.63;12.32;;;;;;;4.73;100.00;98589.56;5139108;28;20163;-67
2023/03/20 05:59:06;;;;;;;27.55;12.30;;;;;;;4.61;100.00;98593.09;5138692;28;20047;-63
2023/03/20 06:01:32;;;;;;;32.35;12.82;;;;;;;4.44;100.00;98680.94;5138982;28;20075;-65
2023/03/20 06:03:58;;;;;;;27.70;12.50;;;;;;;4.79;100.00;98671.63;5138469;28;20142;-65
2023/03/20 06:06:24;;;;;;;30.83;13.68;;;;;;;4.64;100.00;98646.72;5138614;27;20051;-65
2023/03/20 06:08:50;;;;;;;26.48;12.60;;;;;;;4.81;100.00;98642.22;5138404;28;20051;-71
2023/03/20 06:11:17;;;;;;;27.95;13.88;;;;;;;5.24;100.00;98578.31;5138499;28;20047;-71
2023/03/20 06:13:43;;;;;;;27.98;14.05;;;;;;;5.32;100.00;98493.13;5138733;28;20143;-71
2023/03/20 06:16:09;;;;;;;29.27;12.60;;;;;;;5.04;100.00;98471.38;5138399;28;20063;-65
2023/03/20 06:18:35;;;;;;;24.90;12.57;;;;;;;5.08;100.00;98485.84;5138624;28;20047;-64
2023/03/20 06:21:01;;;;;;;30.60;14.20;;;;;;;5.01;100.00;98540.00;5138241;28;20335;-70
2023/03/20 06:23:27;;;;;;;33.83;13.02;;;;;;;5.28;100.00;98503.91;5138739;28;20134;-69
2023/03/20 06:25:53;;;;;;;30.73;12.65;;;;;;;5.47;100.00;98492.38;5138376;28;20377;-71
2023/03/20 06:28:20;;;;;;;30.10;13.65;;;;;;;5.62;100.00;98415.47;5138723;28;20057;-67
2023/03/20 06:30:46;;;;;;;32.50;13.60;;;;;;;5.50;100.00;98384.84;5138152;28;20062;-69
2023/03/20 06:33:12;;;;;;;29.23;13.80;;;;;;;5.60;100.00;98393.31;5138336;28;20055;-64
2023/03/20 06:35:38;;;;;;;28.13;13.95;;;;;;;5.61;100.00;98380.50;5137946;27;20107;-63
2023/03/20 06:38:04;;;;;;;51.90;20.83;;;;;;;5.76;100.00;98366.09;5138557;28;20134;-64
2023/03/20 06:40:30;;;;;;;38.55;17.08;;;;;;;5.83;100.00;98358.13;5137896;28;20559;-65
2023/03/20 06:42:56;;;;;;;38.30;16.75;;;;;;;5.95;100.00;98357.25;5138204;28;20147;-63
2023/03/20 06:45:23;;;;;;;31.48;15.35;;;;;;;5.65;100.00;98352.25;5139309;28;20055;-64
2023/03/20 06:47:49;;;;;;;51.58;20.65;;;;;;;5.78;100.00;98377.41;5139706;28;20100;-63
2023/03/20 06:50:15;;;;;;;36.78;16.23;;;;;;;5.40;100.00;98339.97;5138699;28;20131;-64
2023/03/20 06:52:41;;;;;;;51.90;16.50;;;;;;;5.70;100.00;98391.19;5137862;27;20298;-65
2023/03/20 06:55:08;;;;;;;41.10;18.00;;;;;;;6.05;100.00;98345.81;5138685;28;20055;-69
2023/03/20 06:57:34;;;;;;;36.65;15.88;;;;;;;6.03;100.00;98334.50;5138017;28;20503;-68
2023/03/20 07:00:00;;;;;;;32.95;15.18;;;;;;;6.34;100.00;98319.22;5138312;28;20043;-68
2023/03/20 07:02:27;;;;;;;41.70;17.42;;;;;;;6.28;100.00;98298.88;5137688;28;20051;-67
2023/03/20 07:04:53;;;;;;;42.17;20.00;;;;;;;6.35;100.00;98290.84;5138258;27;20058;-63
2023/03/20 07:07:18;;;;;;;66.20;31.52;;;;;;;6.54;100.00;98274.50;5137636;28;20416;-65
2023/03/20 07:09:44;;;;;;;77.97;31.67;;;;;;;6.48;100.00;98270.50;5137805;28;20057;-66
2023/03/20 07:12:13;;;;;;;72.93;29.13;;;;;;;6.48;100.00;98261.53;5137601;28;20141;-69
2023/03/20 07:14:39;;;;;;;58.38;27.70;;;;;;;6.82;100.00;98252.44;5137679;28;20055;-68
2023/03/20 07:17:05;;;;;;;63.10;26.70;;;;;;;6.70;100.00;98254.59;5137786;28;20058;-65
2023/03/20 07:19:31;;;;;;;60.67;25.33;;;;;;;6.83;100.00;98245.06;5137618;28;20369;-65
2023/03/20 07:22:01;;;;;;;59.28;26.42;;;;;;;7.00;100.00;98247.34;5137684;28;20437;-65
2023/03/20 07:24:27;;;;;;;47.13;21.58;;;;;;;6.96;100.00;98248.41;5137165;28;20079;-64
2023/03/20 07:26:53;;;;;;;51.92;22.23;;;;;;;6.87;100.00;98245.16;5137704;28;20074;-70
2023/03/20 07:29:19;;;;;;;41.67;17.88;;;;;;;6.89;100.00;98251.00;5137210;28;20398;-70
2023/03/20 07:31:45;;;;;;;37.33;18.20;;;;;;;7.18;100.00;98246.84;5137617;28;20104;-69
2023/03/20 07:34:12;;;;;;;42.95;17.67;;;;;;;7.36;100.00;98236.22;5137222;27;20504;-66
2023/03/20 07:36:40;;;;;;;41.13;18.05;;;;;;;7.11;100.00;98242.06;5137524;28;20142;-68
2023/03/20 07:39:07;;;;;;;39.47;20.17;;;;;;;7.45;100.00;98244.94;5137288;28;20089;-65
2023/03/20 07:41:32;;;;;;;34.58;18.00;;;;;;;6.96;100.00;98235.56;5137027;28;20051;-68
2023/03/20 07:43:58;;;;;;;45.85;19.10;;;;;;;6.60;100.00;98242.34;5137036;28;20429;-69
2023/03/20 07:46:25;;;;;;;53.85;20.30;;;;;;;7.37;100.00;98230.41;5136931;28;20305;-69
2023/03/20 07:48:51;;;;;;;41.25;18.60;;;;;;;7.33;100.00;98237.75;5137215;28;20134;-63
2023/03/20 07:51:17;;;;;;;54.67;22.60;;;;;;;7.68;100.00;98236.69;5136825;28;20420;-67
2023/03/20 07:53:43;;;;;;;48.20;22.83;;;;;;;7.28;100.00;98244.28;5137017;28;20054;-66
2023/03/20 07:56:10;;;;;;;35.72;17.77;;;;;;;7.73;100.00;98256.28;5136731;28;20110;-68
2023/03/20 07:58:36;;;;;;;46.15;19.83;;;;;;;8.00;100.00;98262.50;5137147;28;20374;-68
2023/03/20 08:01:02;;;;;;;41.88;19.38;;;;;;;7.78;100.00;98285.19;5136675;28;20059;-69
2023/03/20 08:03:28;;;;;;;37.10;19.67;;;;;;;7.85;100.00;98265.38;5138440;27;20124;-67
2023/03/20 08:05:55;;;;;;;44.58;18.45;;;;;;;8.22;100.00;98279.94;5140106;27;20079;-65
2023/03/20 08:08:20;;;;;;;35.17;19.00;;;;;;;7.75;100.00;98319.44;5140448;28;20367;-65
2023/03/20 08:10:47;;;;;;;34.90;16.55;;;;;;;7.66;100.00;98264.34;5140405;28;20054;-67
2023/03/20 08:13:13;;;;;;;30.60;15.63;;;;;;;8.11;100.00;98292.66;5140472;28;20325;-66
2023/03/20 08:15:39;;;;;;;32.45;15.82;;;;;;;8.19;100.00;98296.25;5140249;28;20150;-67
2023/03/20 08:18:05;;;;;;;28.25;15.13;;;;;;;7.27;100.00;98285.56;5140052;28;20477;-64
2023/03/20 08:20:31;;;;;;;41.90;15.23;;;;;;;7.65;100.00;98260.03;5140480;28;20362;-66
2023/03/20 08:22:57;;;;;;;43.47;13.75;;;;;;;7.90;100.00;98260.41;5140076;28;20447;-68
2023/03/20 08:25:23;;;;;;;36.80;15.27;;;;;;;8.02;100.00;98276.53;5140535;28;20134;-68
2023/03/20 08:27:50;;;;;;;36.30;15.82;;;;;;;8.10;100.00;98307.47;5140174;28;20051;-68
2023/03/20 08:30:16;;;;;;;36.47;15.40;;;;;;;7.43;100.00;98261.66;5140489;28;20138;-69
2023/03/20 08:32:42;;;;;;;27.17;13.65;;;;;;;7.30;100.00;98261.06;5139921;28;20430;-64
2023/03/20 08:35:10;;;;;;;34.63;14.85;;;;;;;7.23;100.00;98241.06;5140349;27;20047;-64
2023/03/20 08:37:36;;;;;;;32.70;13.82;;;;;;;7.36;100.00;98236.22;5140203;28;20075;-69
2023/03/20 08:40:03;;;;;;;24.17;11.98;;;;;;;7.27;100.00;98240.00;5139788;28;20095;-69
2023/03/20 08:42:29;;;;;;;23.55;12.10;;;;;;;7.63;100.00;98239.72;5139801;28;20423;-70
2023/03/20 08:44:55;;;;;;;35.10;12.75;;;;;;;8.28;100.00;98264.00;5139846;28;20079;-70
2023/03/20 08:47:21;;;;;;;34.17;14.30;;;;;;;8.14;100.00;98299.31;5140035;28;20054;-69
2023/03/20 08:49:47;;;;;;;110.82;44.25;;;;;;;8.42;100.00;98305.19;5139825;28;20051;-70
2023/03/20 08:52:13;;;;;;;33.70;15.85;;;;;;;8.32;100.00;98308.53;5140082;28;20103;-69
2023/03/20 08:54:39;;;;;;;31.02;12.18;;;;;;;7.77;100.00;98321.81;5139758;28;20084;-67
2023/03/20 08:57:05;;;;;;;25.85;11.82;;;;;;;7.71;100.00;98274.16;5139882;28;20146;-67
2023/03/20 08:59:32;;;;;;;21.58;11.85;;;;;;;7.79;100.00;98248.53;5139173;28;20043;-66
2023/03/20 09:01:58;;;;;;;32.17;14.60;;;;;;;7.76;100.00;98252.81;5139786;28;20059;-67
2023/03/20 09:04:24;;;;;;;32.88;12.60;;;;;;;8.34;100.00;98275.41;5139275;27;20141;-64
2023/03/20 09:06:50;;;;;;;21.77;12.48;;;;;;;7.50;100.00;98297.22;5139609;28;20123;-68
2023/03/20 09:09:18;;;;;;;24.30;10.43;;;;;;;7.39;100.00;98255.34;5140415;28;20058;-64
2023/03/20 09:11:45;;;;;;;25.42;12.57;;;;;;;7.35;100.00;98221.78;5139687;28;20081;-68
2023/03/20 09:14:11;;;;;;;21.88;11.25;;;;;;;7.25;100.00;98217.75;5139038;27;20057;-64
2023/03/20 09:16:37;;;;;;;26.55;11.68;;;;;;;7.92;100.00;98244.44;5138728;28;20399;-70
2023/03/20 09:19:04;;;;;;;27.42;12.35;;;;;;;8.46;100.00;98266.97;5139584;28;20050;-68
2023/03/20 09:21:30;;;;;;;28.60;11.45;;;;;;;8.63;100.00;98288.28;5139243;28;20111;-69
2023/03/20 09:23:56;;;;;;;26.77;11.82;;;;;;;8.28;100.00;98310.44;5139565;28;20054;-68
2023/03/20 09:26:22;;;;;;;26.33;11.30;;;;;;;7.81;100.00;98270.78;5138987;28;20055;-67
2023/03/20 09:28:48;;;;;;;25.27;9.57;;;;;;;7.83;100.00;98252.13;5139504;28;20115;-65
2023/03/20 09:31:14;;;;;;;24.35;10.02;;;;;;;7.53;100.00;98250.13;5139034;28;20135;-71
2023/03/20 09:33:40;;;;;;;24.80;9.65;;;;;;;7.95;100.00;98272.94;5139490;28;20345;-70
2023/03/20 09:36:10;;;;;;;26.65;10.90;;;;;;;8.30;100.00;98304.59;5139389;27;20051;-68
2023/03/20 09:38:36;;;;;;;22.13;10.43;;;;;;;8.72;100.00;98359.78;5138893;28;20385;-65
2023/03/20 09:41:04;;;;;;;27.48;9.75;;;;;;;9.20;100.00;98394.72;5138868;28;20099;-64
2023/03/20 09:43:43;;;;;;;21.63;8.70;;;;;;;9.00;100.00;98442.50;5138756;28;20057;-69
2023/03/20 09:46:25;;;;;;;19.50;9.13;;;;;;;9.13;100.00;98462.97;5139260;28;20047;-66
2023/03/20 09:48:59;;;;;;;20.67;10.73;;;;;;;9.62;100.00;98473.72;5138852;28;20138;-68
2023/03/20 09:51:35;;;;;;;18.95;9.43;;;;;;;9.25;100.00;98464.69;5139203;28;20143;-57
2023/03/20 09:54:06;;;;;;;19.95;10.32;;;;;;;8.63;100.00;98410.41;5138697;28;20050;-65
2023/03/20 09:56:33;;;;;;;24.27;10.38;;;;;;;9.40;100.00;98409.00;5138959;28;20050;-66
2023/03/20 09:59:01;;;;;;;30.70;10.93;;;;;;;9.76;100.00;98436.69;5138839;28;20340;-69
2023/03/20 10:01:34;;;;;;;20.25;8.82;;;;;;;9.41;100.00;98470.75;5138607;28;20051;-64
2023/03/20 10:04:07;;;;;;;25.08;9.70;;;;;;;9.79;100.00;98447.69;5140681;28;20057;-62
2023/03/20 10:06:35;;;;;;;16.55;8.57;;;;;;;9.59;100.00;98473.69;5139994;28;20380;-70
2023/03/20 10:09:15;;;;;;;22.17;10.52;;;;;;;9.27;100.00;98411.22;5138877;28;20066;-58
2023/03/20 10:12:00;;;;;;;18.00;8.85;;;;;;;9.04;100.00;98384.00;5138829;28;20047;-68
2023/03/20 10:14:36;;;;;;;18.17;9.20;;;;;;;9.07;100.00;98366.84;5137909;28;20393;-68
2023/03/20 10:17:28;;;;;;;23.20;9.80;;;;;;;9.62;100.00;98431.88;5138352;28;20072;-65
2023/03/20 10:19:57;;;;;;;17.50;8.65;;;;;;;10.08;100.00;98453.41;5138349;28;20133;-65
2023/03/20 10:22:28;;;;;;;22.58;9.90;;;;;;;9.50;100.00;98467.75;5138289;28;20051;-62
2023/03/20 10:24:58;;;;;;;19.13;9.98;;;;;;;9.01;100.00;98392.94;5137948;28;20051;-67
2023/03/20 10:27:25;;;;;;;25.08;9.63;;;;;;;8.67;100.00;98379.25;5138220;27;20047;-65
2023/03/20 10:30:03;;;;;;;22.33;10.35;;;;;;;8.93;100.00;98342.09;5138056;28;20138;-63
2023/03/20 10:32:35;;;;;;;24.75;9.88;;;;;;;8.97;100.00;98374.94;5137975;28;20051;-62
2023/03/20 10:35:17;;;;;;;19.92;9.68;;;;;;;9.19;100.00;98338.44;5138152;27;20399;-66
2023/03/20 10:37:58;;;;;;;15.05;8.57;;;;;;;9.17;100.00;98347.03;5137982;28;20047;-66
2023/03/20 10:40:28;;;;;;;13.73;8.00;;;;;;;9.35;100.00;98354.63;5138402;28;20421;-72
2023/03/20 10:42:59;;;;;;;19.88;9.32;;;;;;;9.25;100.00;98372.50;5137956;28;20043;-62
2023/03/20 10:45:40;;;;;;;19.30;9.40;;;;;;;9.15;100.00;98318.47;5138242;28;20043;-66
2023/03/20 10:48:14;;;;;;;14.32;7.60;;;;;;;8.98;100.00;98319.09;5137752;28;20314;-56
2023/03/20 10:50:44;;;;;;;18.73;9.30;;;;;;;8.73;100.00;98295.03;5137879;28;20063;-61
2023/03/20 10:53:22;;;;;;;22.83;7.97;;;;;;;9.06;100.00;98326.97;5137979;28;20146;-65
2023/03/20 10:55:49;;;;;;;17.00;9.13;;;;;;;9.39;100.00;98352.69;5137758;28;20138;-58
2023/03/20 10:58:20;;;;;;;16.58;8.65;;;;;;;9.40;100.00;98366.00;5137972;28;20383;-63
2023/03/20 11:00:46;;;;;;;15.38;8.75;;;;;;;9.52;100.00;98375.88;5137428;28;20460;-61
2023/03/20 11:03:21;;;;;;;17.05;8.93;;;;;;;9.10;100.00;98368.06;5138138;28;20055;-64
2023/03/20 11:05:51;;;;;;;17.95;9.10;;;;;;;10.32;100.00;98397.28;5137183;27;20055;-56
2023/03/20 11:08:23;;;;;;;19.05;9.23;;;;;;;10.57;100.00;98465.94;5137474;28;20074;-59
2023/03/20 11:10:58;;;;;;;15.30;7.38;;;;;;;9.85;100.00;98487.25;5137309;28;20058;-63
2023/03/20 11:13:26;;;;;;;19.10;7.72;;;;;;;10.13;100.00;98497.69;5136970;28;20099;-54
2023/03/20 11:15:55;;;;;;;19.58;9.05;;;;;;;10.76;100.00;98511.47;5137457;28;20055;-55
2023/03/20 11:18:27;;;;;;;18.45;9.93;;;;;;;11.03;100.00;98525.78;5137116;28;20103;-63
2023/03/20 11:20:54;;;;;;;27.08;18.08;;;;;;;11.14;100.00;98548.56;5137368;28;20146;-58
2023/03/20 11:23:25;;;;;;;16.70;8.52;;;;;;;10.51;100.00;98517.59;5136978;28;20051;-64
2023/03/20 11:26:01;;;;;;;28.42;14.15;;;;;;;11.12;100.00;98547.34;5137446;28;20047;-61
2023/03/20 11:28:34;;;;;;;24.85;10.30;;;;;;;10.51;100.00;98522.28;5137001;28;20366;-61